sensor_id;sensor_type;location;lat;lon;timestamp;P1;durP1;ratioP1;P2;durP2;ratioP2
55222;SDS011;41090;48.632;12.428;2022-09-09T00:00:35;2.33;;;2.13;;
55222;SDS011;41090;48.632;12.428;2022-09-09T00:03:08;2.30;;;2.10;;
55222;SDS011;41090;48.632;12.428;2022-09-09T00:05:52;11.27;;;2.53;;
55222;SDS011;41090;48.632;12.428;2022-09-09T00:08:21;8.40;;;2.50;;
55222;SDS011;41090;48.632;12.428;2022-09-09T00:10:49;2.73;;;2.40;;
55222;SDS011;41090;48.632;12.428;2022-09-09T00:13:25;4.70;;;2.50;;
55222;SDS011;41090;48.632;12.428;2022-09-09T00:15:59;10.33;;;3.13;;
55222;SDS011;41090;48.632;12.428;2022-09-09T00:20:58;4.13;;;3.00;;
55222;SDS011;41090;48.632;12.428;2022-09-09T00:23:28;7.40;;;2.70;;
55222;SDS011;41090;48.632;12.428;2022-09-09T00:28:41;3.40;;;3.10;;
55222;SDS011;41090;48.632;12.428;2022-09-09T00:31:14;3.03;;;2.57;;
55222;SDS011;41090;48.632;12.428;2022-09-09T00:33:41;2.60;;;2.40;;
55222;SDS011;41090;48.632;12.428;2022-09-09T00:36:14;3.13;;;2.80;;
55222;SDS011;41090;48.632;12.428;2022-09-09T00:43:39;6.27;;;3.13;;
55222;SDS011;41090;48.632;12.428;2022-09-09T00:51:17;4.63;;;2.63;;
55222;SDS011;41090;48.632;12.428;2022-09-09T00:56:20;2.70;;;2.50;;
55222;SDS011;41090;48.632;12.428;2022-09-09T00:59:32;2.70;;;2.50;;
55222;SDS011;41090;48.632;12.428;2022-09-09T01:01:36;4.10;;;3.00;;
55222;SDS011;41090;48.632;12.428;2022-09-09T01:04:01;3.40;;;3.20;;
55222;SDS011;41090;48.632;12.428;2022-09-09T01:06:33;6.60;;;3.63;;
55222;SDS011;41090;48.632;12.428;2022-09-09T01:14:35;13.83;;;3.43;;
55222;SDS011;41090;48.632;12.428;2022-09-09T01:19:42;4.40;;;3.10;;
55222;SDS011;41090;48.632;12.428;2022-09-09T01:25:07;3.63;;;3.43;;
55222;SDS011;41090;48.632;12.428;2022-09-09T01:27:33;3.40;;;3.20;;
55222;SDS011;41090;48.632;12.428;2022-09-09T01:29:59;3.20;;;3.00;;
55222;SDS011;41090;48.632;12.428;2022-09-09T01:35:52;3.33;;;3.03;;
55222;SDS011;41090;48.632;12.428;2022-09-09T01:37:58;3.23;;;3.03;;
55222;SDS011;41090;48.632;12.428;2022-09-09T01:40:24;3.40;;;3.10;;
55222;SDS011;41090;48.632;12.428;2022-09-09T01:42:49;3.63;;;3.10;;
55222;SDS011;41090;48.632;12.428;2022-09-09T01:45:15;3.10;;;2.80;;
55222;SDS011;41090;48.632;12.428;2022-09-09T01:47:40;3.00;;;2.80;;
55222;SDS011;41090;48.632;12.428;2022-09-09T01:50:06;3.30;;;2.50;;
55222;SDS011;41090;48.632;12.428;2022-09-09T01:52:33;2.70;;;2.50;;
55222;SDS011;41090;48.632;12.428;2022-09-09T01:54:59;3.60;;;2.80;;
55222;SDS011;41090;48.632;12.428;2022-09-09T01:57:26;2.83;;;2.63;;
55222;SDS011;41090;48.632;12.428;2022-09-09T02:02:18;11.40;;;2.83;;
55222;SDS011;41090;48.632;12.428;2022-09-09T02:04:47;12.63;;;2.60;;
55222;SDS011;41090;48.632;12.428;2022-09-09T02:09:41;8.27;;;3.40;;
55222;SDS011;41090;48.632;12.428;2022-09-09T02:12:11;8.53;;;3.10;;
55222;SDS011;41090;48.632;12.428;2022-09-09T02:14:39;12.13;;;3.27;;
55222;SDS011;41090;48.632;12.428;2022-09-09T02:17:08;3.00;;;2.70;;
55222;SDS011;41090;48.632;12.428;2022-09-09T02:19:35;2.90;;;2.70;;
55222;SDS011;41090;48.632;12.428;2022-09-09T02:22:01;3.43;;;3.13;;
55222;SDS011;41090;48.632;12.428;2022-09-09T02:24:36;11.50;;;3.47;;
55222;SDS011;41090;48.632;12.428;2022-09-09T02:27:03;3.07;;;2.87;;
55222;SDS011;41090;48.632;12.428;2022-09-09T02:29:33;4.10;;;3.60;;
55222;SDS011;41090;48.632;12.428;2022-09-09T02:32:00;14.67;;;5.20;;
55222;SDS011;41090;48.632;12.428;2022-09-09T02:34:28;5.20;;;4.70;;
55222;SDS011;41090;48.632;12.428;2022-09-09T02:36:54;4.67;;;4.27;;
55222;SDS011;41090;48.632;12.428;2022-09-09T02:39:20;147.27;;;7.60;;
55222;SDS011;41090;48.632;12.428;2022-09-09T02:41:45;26.47;;;5.80;;
55222;SDS011;41090;48.632;12.428;2022-09-09T02:44:14;18.23;;;5.10;;
55222;SDS011;41090;48.632;12.428;2022-09-09T02:46:54;16.83;;;4.70;;
55222;SDS011;41090;48.632;12.428;2022-09-09T02:49:25;93.70;;;6.20;;
55222;SDS011;41090;48.632;12.428;2022-09-09T02:51:57;38.93;;;5.97;;
55222;SDS011;41090;48.632;12.428;2022-09-09T02:54:29;243.43;;;8.73;;
55222;SDS011;41090;48.632;12.428;2022-09-09T02:57:19;47.67;;;5.37;;
55222;SDS011;41090;48.632;12.428;2022-09-09T02:59:43;202.50;;;7.83;;
55222;SDS011;41090;48.632;12.428;2022-09-09T03:02:09;9.33;;;4.60;;
55222;SDS011;41090;48.632;12.428;2022-09-09T03:04:36;223.47;;;8.40;;
55222;SDS011;41090;48.632;12.428;2022-09-09T03:07:02;60.90;;;5.13;;
55222;SDS011;41090;48.632;12.428;2022-09-09T03:09:28;33.27;;;3.80;;
55222;SDS011;41090;48.632;12.428;2022-09-09T03:11:53;24.53;;;3.53;;
55222;SDS011;41090;48.632;12.428;2022-09-09T03:14:20;40.03;;;4.07;;
55222;SDS011;41090;48.632;12.428;2022-09-09T03:16:46;16.03;;;3.73;;
55222;SDS011;41090;48.632;12.428;2022-09-09T03:19:13;81.77;;;6.10;;
55222;SDS011;41090;48.632;12.428;2022-09-09T03:21:39;5.63;;;4.50;;
55222;SDS011;41090;48.632;12.428;2022-09-09T03:24:04;5.47;;;4.30;;
55222;SDS011;41090;48.632;12.428;2022-09-09T03:26:30;5.57;;;4.50;;
55222;SDS011;41090;48.632;12.428;2022-09-09T03:28:55;5.97;;;4.20;;
55222;SDS011;41090;48.632;12.428;2022-09-09T03:31:21;4.87;;;4.47;;
55222;SDS011;41090;48.632;12.428;2022-09-09T03:33:46;4.40;;;4.10;;
55222;SDS011;41090;48.632;12.428;2022-09-09T03:36:12;5.20;;;4.77;;
55222;SDS011;41090;48.632;12.428;2022-09-09T03:38:38;4.87;;;4.50;;
55222;SDS011;41090;48.632;12.428;2022-09-09T03:41:03;5.07;;;4.63;;
55222;SDS011;41090;48.632;12.428;2022-09-09T03:43:31;6.80;;;4.80;;
55222;SDS011;41090;48.632;12.428;2022-09-09T03:45:57;7.67;;;5.37;;
55222;SDS011;41090;48.632;12.428;2022-09-09T03:48:24;18.70;;;5.80;;
55222;SDS011;41090;48.632;12.428;2022-09-09T03:50:50;37.97;;;5.63;;
55222;SDS011;41090;48.632;12.428;2022-09-09T03:53:17;82.60;;;7.00;;
55222;SDS011;41090;48.632;12.428;2022-09-09T03:55:48;9.20;;;5.33;;
55222;SDS011;41090;48.632;12.428;2022-09-09T03:58:15;6.30;;;5.13;;
55222;SDS011;41090;48.632;12.428;2022-09-09T04:00:40;5.83;;;5.33;;
55222;SDS011;41090;48.632;12.428;2022-09-09T04:03:11;7.63;;;6.93;;
55222;SDS011;41090;48.632;12.428;2022-09-09T04:05:36;7.67;;;7.03;;
55222;SDS011;41090;48.632;12.428;2022-09-09T04:08:09;7.20;;;6.50;;
55222;SDS011;41090;48.632;12.428;2022-09-09T04:10:34;5.83;;;5.20;;
55222;SDS011;41090;48.632;12.428;2022-09-09T04:13:02;5.73;;;5.23;;
55222;SDS011;41090;48.632;12.428;2022-09-09T04:15:27;5.70;;;5.10;;
55222;SDS011;41090;48.632;12.428;2022-09-09T04:17:53;4.83;;;4.33;;
55222;SDS011;41090;48.632;12.428;2022-09-09T04:20:18;5.50;;;4.97;;
55222;SDS011;41090;48.632;12.428;2022-09-09T04:22:44;5.37;;;4.80;;
55222;SDS011;41090;48.632;12.428;2022-09-09T04:25:09;5.30;;;4.80;;
55222;SDS011;41090;48.632;12.428;2022-09-09T04:27:35;5.40;;;4.90;;
55222;SDS011;41090;48.632;12.428;2022-09-09T04:30:01;4.40;;;4.10;;
55222;SDS011;41090;48.632;12.428;2022-09-09T04:32:26;5.03;;;4.63;;
55222;SDS011;41090;48.632;12.428;2022-09-09T04:34:52;4.53;;;4.13;;
55222;SDS011;41090;48.632;12.428;2022-09-09T04:37:17;4.50;;;4.03;;
55222;SDS011;41090;48.632;12.428;2022-09-09T04:39:42;4.20;;;3.90;;
55222;SDS011;41090;48.632;12.428;2022-09-09T04:42:07;4.93;;;4.53;;
55222;SDS011;41090;48.632;12.428;2022-09-09T04:44:33;4.30;;;4.00;;
55222;SDS011;41090;48.632;12.428;2022-09-09T04:46:58;4.87;;;3.93;;
55222;SDS011;41090;48.632;12.428;2022-09-09T04:49:23;4.70;;;4.27;;
55222;SDS011;41090;48.632;12.428;2022-09-09T04:51:49;11.60;;;5.00;;
55222;SDS011;41090;48.632;12.428;2022-09-09T04:54:14;72.83;;;6.23;;
55222;SDS011;41090;48.632;12.428;2022-09-09T04:56:40;44.57;;;6.03;;
55222;SDS011;41090;48.632;12.428;2022-09-09T04:59:07;157.47;;;7.13;;
55222;SDS011;41090;48.632;12.428;2022-09-09T05:01:32;22.90;;;6.33;;
55222;SDS011;41090;48.632;12.428;2022-09-09T05:03:57;6.07;;;5.57;;
55222;SDS011;41090;48.632;12.428;2022-09-09T05:06:23;7.40;;;6.67;;
55222;SDS011;41090;48.632;12.428;2022-09-09T05:08:48;7.50;;;6.80;;
55222;SDS011;41090;48.632;12.428;2022-09-09T05:11:19;6.17;;;5.53;;
55222;SDS011;41090;48.632;12.428;2022-09-09T05:13:45;7.43;;;6.73;;
55222;SDS011;41090;48.632;12.428;2022-09-09T05:16:11;30.77;;;7.93;;
55222;SDS011;41090;48.632;12.428;2022-09-09T05:18:43;231.37;;;9.53;;
55222;SDS011;41090;48.632;12.428;2022-09-09T05:21:09;7.30;;;6.70;;
55222;SDS011;41090;48.632;12.428;2022-09-09T05:23:35;111.60;;;8.70;;
55222;SDS011;41090;48.632;12.428;2022-09-09T05:26:00;12.50;;;5.87;;
55222;SDS011;41090;48.632;12.428;2022-09-09T05:28:26;90.60;;;8.10;;
55222;SDS011;41090;48.632;12.428;2022-09-09T05:30:56;19.57;;;6.30;;
55222;SDS011;41090;48.632;12.428;2022-09-09T05:33:22;42.23;;;6.20;;
55222;SDS011;41090;48.632;12.428;2022-09-09T05:35:54;77.07;;;6.83;;
55222;SDS011;41090;48.632;12.428;2022-09-09T05:38:19;6.43;;;5.83;;
55222;SDS011;41090;48.632;12.428;2022-09-09T05:40:59;5.00;;;4.60;;
55222;SDS011;41090;48.632;12.428;2022-09-09T05:43:25;5.07;;;4.57;;
55222;SDS011;41090;48.632;12.428;2022-09-09T05:46:01;6.17;;;5.67;;
55222;SDS011;41090;48.632;12.428;2022-09-09T05:48:32;5.90;;;5.40;;
55222;SDS011;41090;48.632;12.428;2022-09-09T05:50:58;5.60;;;5.00;;
55222;SDS011;41090;48.632;12.428;2022-09-09T05:53:26;5.13;;;4.50;;
55222;SDS011;41090;48.632;12.428;2022-09-09T05:55:58;5.70;;;5.27;;
55222;SDS011;41090;48.632;12.428;2022-09-09T05:58:23;5.20;;;4.80;;
55222;SDS011;41090;48.632;12.428;2022-09-09T06:00:49;4.70;;;4.30;;
55222;SDS011;41090;48.632;12.428;2022-09-09T06:03:16;4.70;;;4.30;;
55222;SDS011;41090;48.632;12.428;2022-09-09T06:05:42;5.40;;;4.90;;
55222;SDS011;41090;48.632;12.428;2022-09-09T06:08:07;5.20;;;4.67;;
55222;SDS011;41090;48.632;12.428;2022-09-09T06:10:32;4.87;;;4.47;;
55222;SDS011;41090;48.632;12.428;2022-09-09T06:12:59;5.00;;;4.50;;
55222;SDS011;41090;48.632;12.428;2022-09-09T06:15:24;7.87;;;4.87;;
55222;SDS011;41090;48.632;12.428;2022-09-09T06:20:18;6.80;;;4.70;;
55222;SDS011;41090;48.632;12.428;2022-09-09T06:22:43;5.23;;;4.37;;
55222;SDS011;41090;48.632;12.428;2022-09-09T06:25:11;5.10;;;3.87;;
55222;SDS011;41090;48.632;12.428;2022-09-09T06:27:37;5.60;;;3.53;;
55222;SDS011;41090;48.632;12.428;2022-09-09T06:30:02;4.57;;;3.50;;
55222;SDS011;41090;48.632;12.428;2022-09-09T06:32:28;4.73;;;3.43;;
55222;SDS011;41090;48.632;12.428;2022-09-09T06:34:53;3.40;;;3.10;;
55222;SDS011;41090;48.632;12.428;2022-09-09T06:37:20;5.07;;;3.80;;
55222;SDS011;41090;48.632;12.428;2022-09-09T06:39:45;4.77;;;3.70;;
55222;SDS011;41090;48.632;12.428;2022-09-09T06:42:10;5.73;;;3.50;;
55222;SDS011;41090;48.632;12.428;2022-09-09T06:44:35;3.80;;;3.40;;
55222;SDS011;41090;48.632;12.428;2022-09-09T06:47:01;3.97;;;3.60;;
55222;SDS011;41090;48.632;12.428;2022-09-09T06:49:28;4.00;;;3.70;;
55222;SDS011;41090;48.632;12.428;2022-09-09T06:51:54;3.40;;;3.10;;
55222;SDS011;41090;48.632;12.428;2022-09-09T06:54:19;4.50;;;3.93;;
55222;SDS011;41090;48.632;12.428;2022-09-09T06:56:53;8.67;;;4.33;;
55222;SDS011;41090;48.632;12.428;2022-09-09T06:59:18;4.67;;;4.20;;
55222;SDS011;41090;48.632;12.428;2022-09-09T07:01:44;4.57;;;3.80;;
55222;SDS011;41090;48.632;12.428;2022-09-09T07:04:13;3.70;;;3.20;;
55222;SDS011;41090;48.632;12.428;2022-09-09T07:06:43;4.37;;;3.50;;
55222;SDS011;41090;48.632;12.428;2022-09-09T07:09:09;7.00;;;4.90;;
55222;SDS011;41090;48.632;12.428;2022-09-09T07:11:42;5.87;;;4.20;;
55222;SDS011;41090;48.632;12.428;2022-09-09T07:14:08;4.80;;;4.40;;
55222;SDS011;41090;48.632;12.428;2022-09-09T07:16:34;3.93;;;3.53;;
55222;SDS011;41090;48.632;12.428;2022-09-09T07:19:01;5.70;;;4.03;;
55222;SDS011;41090;48.632;12.428;2022-09-09T07:21:28;4.50;;;4.10;;
55222;SDS011;41090;48.632;12.428;2022-09-09T07:23:53;6.40;;;5.13;;
55222;SDS011;41090;48.632;12.428;2022-09-09T07:26:20;6.23;;;5.57;;
55222;SDS011;41090;48.632;12.428;2022-09-09T07:28:45;5.57;;;5.10;;
55222;SDS011;41090;48.632;12.428;2022-09-09T07:31:15;6.60;;;5.50;;
55222;SDS011;41090;48.632;12.428;2022-09-09T07:33:41;7.50;;;6.03;;
55222;SDS011;41090;48.632;12.428;2022-09-09T07:36:08;6.53;;;5.07;;
55222;SDS011;41090;48.632;12.428;2022-09-09T07:38:40;7.87;;;6.10;;
55222;SDS011;41090;48.632;12.428;2022-09-09T07:41:08;10.63;;;7.30;;
55222;SDS011;41090;48.632;12.428;2022-09-09T07:43:40;13.73;;;7.10;;
55222;SDS011;41090;48.632;12.428;2022-09-09T07:46:06;8.30;;;5.63;;
55222;SDS011;41090;48.632;12.428;2022-09-09T07:48:32;14.20;;;6.97;;
55222;SDS011;41090;48.632;12.428;2022-09-09T07:51:04;7.97;;;6.80;;
55222;SDS011;41090;48.632;12.428;2022-09-09T07:53:30;7.17;;;6.47;;
55222;SDS011;41090;48.632;12.428;2022-09-09T07:56:01;5.57;;;5.07;;
55222;SDS011;41090;48.632;12.428;2022-09-09T07:58:26;6.97;;;4.97;;
55222;SDS011;41090;48.632;12.428;2022-09-09T08:00:52;5.00;;;4.60;;
55222;SDS011;41090;48.632;12.428;2022-09-09T08:03:17;6.03;;;4.73;;
55222;SDS011;41090;48.632;12.428;2022-09-09T08:05:42;8.87;;;5.37;;
55222;SDS011;41090;48.632;12.428;2022-09-09T08:08:08;8.37;;;4.97;;
55222;SDS011;41090;48.632;12.428;2022-09-09T08:10:34;6.33;;;4.90;;
55222;SDS011;41090;48.632;12.428;2022-09-09T08:12:59;5.50;;;4.67;;
55222;SDS011;41090;48.632;12.428;2022-09-09T08:15:24;5.97;;;4.40;;
55222;SDS011;41090;48.632;12.428;2022-09-09T08:17:49;6.57;;;4.57;;
55222;SDS011;41090;48.632;12.428;2022-09-09T08:20:15;6.03;;;4.07;;
55222;SDS011;41090;48.632;12.428;2022-09-09T08:22:40;5.47;;;4.30;;
55222;SDS011;41090;48.632;12.428;2022-09-09T08:25:07;4.53;;;4.13;;
55222;SDS011;41090;48.632;12.428;2022-09-09T08:27:33;4.67;;;4.27;;
55222;SDS011;41090;48.632;12.428;2022-09-09T08:29:58;5.27;;;4.43;;
55222;SDS011;41090;48.632;12.428;2022-09-09T08:32:24;4.13;;;3.73;;
55222;SDS011;41090;48.632;12.428;2022-09-09T08:34:49;4.50;;;4.10;;
55222;SDS011;41090;48.632;12.428;2022-09-09T08:37:14;6.23;;;4.30;;
55222;SDS011;41090;48.632;12.428;2022-09-09T08:39:39;6.00;;;4.70;;
55222;SDS011;41090;48.632;12.428;2022-09-09T08:42:25;4.97;;;4.40;;
55222;SDS011;41090;48.632;12.428;2022-09-09T08:45:00;5.50;;;4.17;;
55222;SDS011;41090;48.632;12.428;2022-09-09T08:57:54;5.33;;;4.77;;
55222;SDS011;41090;48.632;12.428;2022-09-09T09:00:20;5.13;;;4.63;;
55222;SDS011;41090;48.632;12.428;2022-09-09T09:02:56;4.87;;;4.37;;
55222;SDS011;41090;48.632;12.428;2022-09-09T09:05:44;6.27;;;5.07;;
55222;SDS011;41090;48.632;12.428;2022-09-09T09:08:25;5.37;;;4.83;;
55222;SDS011;41090;48.632;12.428;2022-09-09T09:10:54;5.37;;;4.87;;
55222;SDS011;41090;48.632;12.428;2022-09-09T09:16:27;5.63;;;4.93;;
55222;SDS011;41090;48.632;12.428;2022-09-09T09:18:53;7.87;;;5.13;;
55222;SDS011;41090;48.632;12.428;2022-09-09T09:24:04;8.43;;;4.43;;
55222;SDS011;41090;48.632;12.428;2022-09-09T09:26:32;7.73;;;5.00;;
55222;SDS011;41090;48.632;12.428;2022-09-09T09:28:58;4.80;;;4.40;;
55222;SDS011;41090;48.632;12.428;2022-09-09T09:31:24;4.80;;;4.30;;
55222;SDS011;41090;48.632;12.428;2022-09-09T09:36:18;7.00;;;5.03;;
55222;SDS011;41090;48.632;12.428;2022-09-09T09:38:54;10.53;;;4.50;;
55222;SDS011;41090;48.632;12.428;2022-09-09T09:43:55;4.83;;;4.30;;
55222;SDS011;41090;48.632;12.428;2022-09-09T09:46:21;5.63;;;5.00;;
55222;SDS011;41090;48.632;12.428;2022-09-09T09:49:04;6.77;;;5.13;;
55222;SDS011;41090;48.632;12.428;2022-09-09T09:51:30;6.27;;;4.40;;
55222;SDS011;41090;48.632;12.428;2022-09-09T09:54:14;5.47;;;4.83;;
55222;SDS011;41090;48.632;12.428;2022-09-09T09:56:41;5.00;;;4.50;;
55222;SDS011;41090;48.632;12.428;2022-09-09T09:59:59;5.37;;;4.40;;
55222;SDS011;41090;48.632;12.428;2022-09-09T10:01:53;6.60;;;4.50;;
55222;SDS011;41090;48.632;12.428;2022-09-09T10:04:19;4.90;;;4.33;;
55222;SDS011;41090;48.632;12.428;2022-09-09T10:06:45;5.33;;;3.73;;
55222;SDS011;41090;48.632;12.428;2022-09-09T10:09:24;3.40;;;3.10;;
55222;SDS011;41090;48.632;12.428;2022-09-09T10:14:19;4.73;;;4.20;;
55222;SDS011;41090;48.632;12.428;2022-09-09T10:19:30;9.30;;;6.60;;
55222;SDS011;41090;48.632;12.428;2022-09-09T10:22:05;4.63;;;4.20;;
55222;SDS011;41090;48.632;12.428;2022-09-09T10:29:50;5.17;;;4.77;;
55222;SDS011;41090;48.632;12.428;2022-09-09T10:35:01;6.23;;;4.70;;
55222;SDS011;41090;48.632;12.428;2022-09-09T10:42:41;6.33;;;3.90;;
55222;SDS011;41090;48.632;12.428;2022-09-09T10:50:45;4.33;;;3.20;;
55222;SDS011;41090;48.632;12.428;2022-09-09T10:55:45;4.90;;;3.53;;
55222;SDS011;41090;48.632;12.428;2022-09-09T10:58:19;7.63;;;3.50;;
55222;SDS011;41090;48.632;12.428;2022-09-09T11:00:51;4.17;;;3.60;;
55222;SDS011;41090;48.632;12.428;2022-09-09T11:03:39;6.30;;;3.77;;
55222;SDS011;41090;48.632;12.428;2022-09-09T11:06:04;5.80;;;3.10;;
55222;SDS011;41090;48.632;12.428;2022-09-09T11:08:31;4.03;;;3.40;;
55222;SDS011;41090;48.632;12.428;2022-09-09T11:18:44;5.50;;;3.60;;
55222;SDS011;41090;48.632;12.428;2022-09-09T11:21:33;3.93;;;3.40;;
55222;SDS011;41090;48.632;12.428;2022-09-09T11:24:02;3.87;;;3.47;;
55222;SDS011;41090;48.632;12.428;2022-09-09T11:26:35;4.67;;;3.10;;
55222;SDS011;41090;48.632;12.428;2022-09-09T11:29:06;4.33;;;3.20;;
55222;SDS011;41090;48.632;12.428;2022-09-09T11:34:42;3.50;;;3.00;;
55222;SDS011;41090;48.632;12.428;2022-09-09T11:42:24;4.10;;;2.80;;
55222;SDS011;41090;48.632;12.428;2022-09-09T11:44:50;4.27;;;2.60;;
55222;SDS011;41090;48.632;12.428;2022-09-09T11:47:20;3.07;;;2.47;;
55222;SDS011;41090;48.632;12.428;2022-09-09T11:49:47;3.70;;;2.37;;
55222;SDS011;41090;48.632;12.428;2022-09-09T11:54:57;3.47;;;2.30;;
55222;SDS011;41090;48.632;12.428;2022-09-09T11:57:34;2.57;;;2.30;;
55222;SDS011;41090;48.632;12.428;2022-09-09T12:00:00;2.70;;;2.00;;
55222;SDS011;41090;48.632;12.428;2022-09-09T12:02:27;4.20;;;2.30;;
55222;SDS011;41090;48.632;12.428;2022-09-09T12:04:57;3.70;;;2.10;;
55222;SDS011;41090;48.632;12.428;2022-09-09T12:17:09;3.33;;;2.23;;
55222;SDS011;41090;48.632;12.428;2022-09-09T12:19:35;3.13;;;1.63;;
55222;SDS011;41090;48.632;12.428;2022-09-09T12:22:03;3.73;;;2.00;;
55222;SDS011;41090;48.632;12.428;2022-09-09T12:24:34;2.55;;;1.70;;
55222;SDS011;41090;48.632;12.428;2022-09-09T12:32:09;2.45;;;1.70;;
55222;SDS011;41090;48.632;12.428;2022-09-09T12:34:46;4.20;;;1.63;;
55222;SDS011;41090;48.632;12.428;2022-09-09T12:39:38;3.40;;;1.70;;
55222;SDS011;41090;48.632;12.428;2022-09-09T12:42:15;3.28;;;1.50;;
55222;SDS011;41090;48.632;12.428;2022-09-09T12:44:49;2.03;;;1.50;;
55222;SDS011;41090;48.632;12.428;2022-09-09T12:47:15;3.22;;;1.50;;
55222;SDS011;41090;48.632;12.428;2022-09-09T12:49:41;2.55;;;1.73;;
55222;SDS011;41090;48.632;12.428;2022-09-09T12:52:09;2.50;;;1.70;;
55222;SDS011;41090;48.632;12.428;2022-09-09T12:54:38;3.03;;;1.80;;
55222;SDS011;41090;48.632;12.428;2022-09-09T12:57:10;2.00;;;1.80;;
55222;SDS011;41090;48.632;12.428;2022-09-09T12:59:38;2.42;;;1.90;;
55222;SDS011;41090;48.632;12.428;2022-09-09T13:02:26;2.08;;;1.83;;
55222;SDS011;41090;48.632;12.428;2022-09-09T13:04:49;4.13;;;1.92;;
55222;SDS011;41090;48.632;12.428;2022-09-09T13:07:16;2.42;;;1.80;;
55222;SDS011;41090;48.632;12.428;2022-09-09T13:09:42;3.28;;;1.92;;
55222;SDS011;41090;48.632;12.428;2022-09-09T13:12:10;2.13;;;1.52;;
55222;SDS011;41090;48.632;12.428;2022-09-09T13:14:38;2.13;;;1.77;;
55222;SDS011;41090;48.632;12.428;2022-09-09T13:17:03;2.45;;;1.55;;
55222;SDS011;41090;48.632;12.428;2022-09-09T13:19:30;2.22;;;1.70;;
55222;SDS011;41090;48.632;12.428;2022-09-09T13:21:57;2.38;;;1.65;;
55222;SDS011;41090;48.632;12.428;2022-09-09T13:24:30;2.72;;;1.63;;
55222;SDS011;41090;48.632;12.428;2022-09-09T13:27:18;2.75;;;1.67;;
55222;SDS011;41090;48.632;12.428;2022-09-09T13:32:22;5.82;;;2.10;;
55222;SDS011;41090;48.632;12.428;2022-09-09T13:34:55;2.15;;;1.70;;
55222;SDS011;41090;48.632;12.428;2022-09-09T13:37:41;2.13;;;1.73;;
55222;SDS011;41090;48.632;12.428;2022-09-09T13:40:06;3.17;;;1.95;;
55222;SDS011;41090;48.632;12.428;2022-09-09T13:42:33;2.10;;;1.80;;
55222;SDS011;41090;48.632;12.428;2022-09-09T13:45:02;2.67;;;2.08;;
55222;SDS011;41090;48.632;12.428;2022-09-09T13:47:33;3.25;;;1.88;;
55222;SDS011;41090;48.632;12.428;2022-09-09T13:50:09;2.22;;;1.70;;
55222;SDS011;41090;48.632;12.428;2022-09-09T13:52:35;2.25;;;1.67;;
55222;SDS011;41090;48.632;12.428;2022-09-09T13:55:00;2.38;;;1.77;;
55222;SDS011;41090;48.632;12.428;2022-09-09T13:57:26;2.45;;;2.00;;
55222;SDS011;41090;48.632;12.428;2022-09-09T13:59:52;1.70;;;1.58;;
55222;SDS011;41090;48.632;12.428;2022-09-09T14:02:19;2.55;;;1.65;;
55222;SDS011;41090;48.632;12.428;2022-09-09T14:04:46;2.05;;;1.80;;
55222;SDS011;41090;48.632;12.428;2022-09-09T14:07:12;2.30;;;1.52;;
55222;SDS011;41090;48.632;12.428;2022-09-09T14:09:38;2.45;;;1.75;;
55222;SDS011;41090;48.632;12.428;2022-09-09T14:12:04;2.13;;;1.70;;
55222;SDS011;41090;48.632;12.428;2022-09-09T14:14:29;3.25;;;1.90;;
55222;SDS011;41090;48.632;12.428;2022-09-09T14:16:55;2.58;;;1.77;;
55222;SDS011;41090;48.632;12.428;2022-09-09T14:19:20;2.80;;;1.55;;
55222;SDS011;41090;48.632;12.428;2022-09-09T14:21:45;3.60;;;1.80;;
55222;SDS011;41090;48.632;12.428;2022-09-09T14:24:11;2.53;;;1.50;;
55222;SDS011;41090;48.632;12.428;2022-09-09T14:26:37;2.97;;;1.52;;
55222;SDS011;41090;48.632;12.428;2022-09-09T14:29:02;1.75;;;1.40;;
55222;SDS011;41090;48.632;12.428;2022-09-09T14:31:27;2.78;;;1.83;;
55222;SDS011;41090;48.632;12.428;2022-09-09T14:33:53;2.00;;;1.52;;
55222;SDS011;41090;48.632;12.428;2022-09-09T14:36:18;2.08;;;1.50;;
55222;SDS011;41090;48.632;12.428;2022-09-09T14:38:44;3.13;;;1.90;;
55222;SDS011;41090;48.632;12.428;2022-09-09T14:41:13;2.55;;;1.67;;
55222;SDS011;41090;48.632;12.428;2022-09-09T14:43:38;2.30;;;1.37;;
55222;SDS011;41090;48.632;12.428;2022-09-09T14:46:05;4.83;;;1.60;;
55222;SDS011;41090;48.632;12.428;2022-09-09T14:48:30;1.60;;;1.50;;
55222;SDS011;41090;48.632;12.428;2022-09-09T14:50:56;2.70;;;1.80;;
55222;SDS011;41090;48.632;12.428;2022-09-09T14:53:21;5.10;;;1.57;;
55222;SDS011;41090;48.632;12.428;2022-09-09T14:55:46;2.33;;;1.87;;
55222;SDS011;41090;48.632;12.428;2022-09-09T14:58:12;3.72;;;1.58;;
55222;SDS011;41090;48.632;12.428;2022-09-09T15:00:38;1.55;;;1.27;;
55222;SDS011;41090;48.632;12.428;2022-09-09T15:03:04;2.38;;;1.40;;
55222;SDS011;41090;48.632;12.428;2022-09-09T15:05:29;3.15;;;1.48;;
55222;SDS011;41090;48.632;12.428;2022-09-09T15:07:56;2.15;;;1.50;;
55222;SDS011;41090;48.632;12.428;2022-09-09T15:10:23;1.90;;;1.50;;
55222;SDS011;41090;48.632;12.428;2022-09-09T15:12:52;2.37;;;1.23;;
55222;SDS011;41090;48.632;12.428;2022-09-09T15:15:17;2.20;;;1.37;;
55222;SDS011;41090;48.632;12.428;2022-09-09T15:17:43;2.63;;;1.87;;
55222;SDS011;41090;48.632;12.428;2022-09-09T15:20:08;3.73;;;1.50;;
55222;SDS011;41090;48.632;12.428;2022-09-09T15:22:33;4.07;;;1.70;;
55222;SDS011;41090;48.632;12.428;2022-09-09T15:25:01;3.10;;;1.63;;
55222;SDS011;41090;48.632;12.428;2022-09-09T15:27:26;1.70;;;1.20;;
55222;SDS011;41090;48.632;12.428;2022-09-09T15:29:51;3.07;;;1.40;;
55222;SDS011;41090;48.632;12.428;2022-09-09T15:32:17;2.00;;;1.30;;
55222;SDS011;41090;48.632;12.428;2022-09-09T15:34:42;2.07;;;1.50;;
55222;SDS011;41090;48.632;12.428;2022-09-09T15:37:09;1.67;;;1.30;;
55222;SDS011;41090;48.632;12.428;2022-09-09T15:39:35;1.77;;;1.10;;
55222;SDS011;41090;48.632;12.428;2022-09-09T15:42:01;1.80;;;1.20;;
55222;SDS011;41090;48.632;12.428;2022-09-09T15:44:26;3.33;;;1.30;;
55222;SDS011;41090;48.632;12.428;2022-09-09T15:46:55;2.43;;;1.33;;
55222;SDS011;41090;48.632;12.428;2022-09-09T15:49:21;1.77;;;1.30;;
55222;SDS011;41090;48.632;12.428;2022-09-09T15:52:08;1.57;;;1.33;;
55222;SDS011;41090;48.632;12.428;2022-09-09T15:54:34;1.27;;;1.17;;
55222;SDS011;41090;48.632;12.428;2022-09-09T15:57:00;1.67;;;1.40;;
55222;SDS011;41090;48.632;12.428;2022-09-09T15:59:27;1.97;;;1.40;;
55222;SDS011;41090;48.632;12.428;2022-09-09T16:01:52;1.53;;;1.30;;
55222;SDS011;41090;48.632;12.428;2022-09-09T16:04:18;2.23;;;1.33;;
55222;SDS011;41090;48.632;12.428;2022-09-09T16:06:51;3.57;;;1.40;;
55222;SDS011;41090;48.632;12.428;2022-09-09T16:09:16;2.27;;;1.30;;
55222;SDS011;41090;48.632;12.428;2022-09-09T16:11:41;1.67;;;1.27;;
55222;SDS011;41090;48.632;12.428;2022-09-09T16:14:07;1.40;;;1.20;;
55222;SDS011;41090;48.632;12.428;2022-09-09T16:16:32;3.23;;;1.20;;
55222;SDS011;41090;48.632;12.428;2022-09-09T16:18:58;1.70;;;1.20;;
55222;SDS011;41090;48.632;12.428;2022-09-09T16:23:50;2.90;;;1.53;;
55222;SDS011;41090;48.632;12.428;2022-09-09T16:26:16;1.57;;;1.30;;
55222;SDS011;41090;48.632;12.428;2022-09-09T16:28:42;1.50;;;1.30;;
55222;SDS011;41090;48.632;12.428;2022-09-09T16:31:08;2.60;;;1.30;;
55222;SDS011;41090;48.632;12.428;2022-09-09T16:33:35;1.43;;;1.20;;
55222;SDS011;41090;48.632;12.428;2022-09-09T16:36:07;1.60;;;1.30;;
55222;SDS011;41090;48.632;12.428;2022-09-09T16:38:32;1.70;;;1.20;;
55222;SDS011;41090;48.632;12.428;2022-09-09T16:40:59;2.07;;;1.40;;
55222;SDS011;41090;48.632;12.428;2022-09-09T16:43:24;1.43;;;1.30;;
55222;SDS011;41090;48.632;12.428;2022-09-09T16:45:49;1.70;;;1.60;;